Aérodrome :
LOGIN :

S'inscrire | Disclaimer

   EN    FR    IT 

 










Légende :    VFR   VFR Marginal   IFR   IFR Intensif   IFR Très Intensif
Visi : 
Plafond : 
>= 8 km
>= 3000ft
5 à 8 km
1000 à 3000 ft
1500m à 5 km
500 à 1000 ft
800 à 1500m
200 à 500 ft
< 800m
< 200 ft
Symboles :   Orages  Brouillard  Fortes neiges  Fortes précipitations  Vent > 20 kt
SIGMETs :   Divers  Orages  Givrage  Turbulence  Onde Orograph.  Cendres Volcan.







- Altitude de l'aérodrome : 26 ft
- Code IATA : BIA
- Voir les cartes d'approche


LFKB - Bastia

DERNIER METAR :
  • 262200Z 24004KT CAVOK 17/11 Q1017 NOSIG

METARs EXPIRÉS :
  • 262130Z 24003KT CAVOK 17/11 Q1017 NOSIG
  • 262100Z 23002KT CAVOK 17/10 Q1017 NOSIG
  • 262030Z 25003KT CAVOK 18/10 Q1017 NOSIG
  • 262000Z 00000KT CAVOK 18/10 Q1016 NOSIG
  • 261930Z VRB02KT CAVOK 20/10 Q1016 NOSIG

TAF TAF LFKB
Valide du 26 à 21h jusqu'au 27 à 21h UTC


262000Z 2621/2721 24003KT CAVOK
BECMG 2708/2710 10010KT TX26/2712Z TN15/2703Z
ATIS : +33 4 95 59 19 40
Pas de NOTAMs connus pour ce terrain.



MET'MAP, la Météo Aéronautique d'un coup d'oeil ! - Copyright ORBIFLY Décembre 2007 - Disclaimer

ORBIFLY MET'MAP TEAM :

Programmation & Développement : Alexandra Zaïnal
Conception & Développement : Baudouin d'Aumeries
Co-Programmation & Développement : Marc-Olivier Méhu
Soutien technique & logistique : Manuel Goepfert

Contact : metmap@orbifly.com




SOURCES & CREDITS :

   NOAA